Aérodrome :
LOGIN :

S'inscrire | Disclaimer

   EN    FR    IT 

 










Légende :    VFR   VFR Marginal   IFR   IFR Intensif   IFR Très Intensif
Visi : 
Plafond : 
>= 8 km
>= 3000ft
5 à 8 km
1000 à 3000 ft
1500m à 5 km
500 à 1000 ft
800 à 1500m
200 à 500 ft
< 800m
< 200 ft
Symboles :   Orages  Brouillard  Fortes neiges  Fortes précipitations  Vent > 20 kt
SIGMETs :   Divers  Orages  Givrage  Turbulence  Onde Orograph.  Cendres Volcan.







- Altitude de l'aérodrome : 461 ft
- Code IATA : WIE


ETOU - Wiesbaden Army

DERNIER METAR :
  • 180256Z AUTO 29004KT 9999 CLR 01/M04 A2996 RMK AO2 SLP153 60000 T00091036 52019 $

METARs EXPIRÉS :
  • 180156Z AUTO 28004KT 9999 CLR 01/M03 A2995 RMK AO2 RAB07E32 SLP150 P0000 T00071034 $
  • 180132Z AUTO 29007KT 9999 FEW043 01/M03 A2994 RMK AO2 RAB07E32 SLP146 $
  • 180108Z AUTO 29006KT 9999 -RA FEW041 01/M04 A2993 RMK AO2 RAB07 SLP143 $
  • 180056Z AUTO 30005KT 9999 CLR 02/M04 A2992 RMK AO2 SLP139 T00161041 $
  • 180026Z AUTO 30008KT 9999 FEW023 02/M04 A2991 RMK AO2 SLP136 $
  • 172356Z AUTO 31007KT 9999 BKN023 OVC030 02/M03 A2991 RMK AO2 RAB36E46 CIG 022 RWY07 SLP136 P0000 60000 T00201031 10031 20010 52026 $

TAF TAF ETOU
Valide du 17 à 20h jusqu'au 19 à 02h UTC


172007Z 1720/1902 26012KT 9999 SCT030 QNH2982INS
BECMG 1802/1803 29009KT 9999 SCT010 BKN025 QNH2990INS
BECMG 1806/1807 VRB06KT 9999 SCT015 BKN020 QNH3000INS TX04/1814Z TNM01/1804Z
Pas de NOTAMs connus pour ce terrain.



MET'MAP, la Météo Aéronautique d'un coup d'oeil ! - Copyright ORBIFLY Décembre 2007 - Disclaimer

ORBIFLY MET'MAP TEAM :

Programmation & Développement : Alexandra Zaïnal
Conception & Développement : Baudouin d'Aumeries
Co-Programmation & Développement : Marc-Olivier Méhu
Soutien technique & logistique : Manuel Goepfert

Contact : metmap@orbifly.com




SOURCES & CREDITS :

   NOAA